N1MJL-13 Weather Reports


Display with metric or nautical units.
time (UTC)temp
F
wind
direction
speed
MPH
gust
MPH
rain 1hr
in
rain 24hr
in
rain mn
in
humidity
%
barometer
mb
20200410103015 36 255 2.0 8.0 0.00 0.47 0.00 71 986.6
20200410101945 36 197 1.0 2.0 0.00 0.47 0.00 71 986.5
20200410100919 36 253 2.0 8.0 0.00 0.47 0.00 71 986.5
20200410095845 36 219 0.0 3.0 0.00 0.47 0.00 72 986.4
20200410094815 36 231 3.0 5.0 0.00 0.47 0.00 74 986.5
20200410093745 36 243 2.0 3.0 0.00 0.47 0.00 72 986.6
20200410092716 36 255 2.0 7.0 0.00 0.47 0.00 71 986.6
20200410091645 36 267 3.0 5.0 0.00 0.47 0.00 71 986.6
20200410090615 36 243 1.0 6.0 0.00 0.47 0.00 70 986.5
20200410085545 36 265 2.0 5.0 0.00 0.47 0.00 71 986.3
20200410084515 36 256 1.0 5.0 0.00 0.47 0.00 71 986.3
20200410083445 36 273 1.0 2.0 0.00 0.47 0.00 72 986.2
20200410082415 36 280 2.0 5.0 0.00 0.47 0.00 72 986.3
20200410081347 36 0.0 0.0 0.00 0.47 0.00 72 986.3
20200410080317 36 246 4.0 7.0 0.00 0.47 0.00 70 986.2
20200410075247 36 270 0.0 1.0 0.00 0.47 0.00 70 986.2
20200410074217 36 264 3.0 7.0 0.00 0.47 0.00 71 986.0
20200410073147 36 268 2.0 6.0 0.00 0.47 0.00 72 986.1
20200410072117 36 248 4.0 6.0 0.00 0.47 0.00 74 986.1
20200410071047 36 246 0.0 1.0 0.00 0.47 0.00 76 986.0
20200410070017 36 219 0.0 2.0 0.00 0.47 0.00 76 986.0
20200410064947 36 254 0.0 2.0 0.00 0.47 0.00 76 986.2
20200410063917 36 254 2.0 5.0 0.00 0.47 0.00 75 986.1
20200410062846 36 258 0.0 1.0 0.00 0.47 0.00 75 986.2
20200410061816 36 0.0 1.0 0.00 0.47 0.00 77 986.3
20200410060747 36 303 1.0 2.0 0.00 0.47 0.00 79 986.4
20200410055717 36 208 1.0 5.0 0.00 0.47 0.00 79 986.5
20200410054646 36 55 1.0 2.0 0.00 0.47 0.00 78 986.7
20200410053616 37 269 0.0 3.0 0.00 0.47 0.00 78 986.8
20200410052546 38 242 0.0 2.0 0.00 0.47 0.00 76 986.9
20200410051516 38 257 3.0 6.0 0.00 0.47 0.00 75 987.1
20200410050447 38 252 1.0 2.0 0.00 0.47 0.00 75 987.2
20200410045416 38 242 1.0 6.0 0.00 0.47 0.00 74 987.3
20200410044346 38 247 3.0 5.0 0.00 0.47 0.00 74 987.4
20200410043316 38 269 1.0 4.0 0.00 0.47 0.00 75 987.4
20200410042246 38 256 3.0 6.0 0.00 0.47 0.00 77 987.4
20200410041216 37 295 1.0 4.0 0.00 0.47 0.00 81 987.6
20200410040146 37 219 1.0 5.0 0.00 0.47 0.00 82 987.6
20200410035115 37 11 0.0 1.0 0.00 0.47 0.69 83 987.6
20200410034046 38 265 1.0 2.0 0.00 0.47 0.69 82 987.6
20200410033015 38 244 0.0 2.0 0.00 0.47 0.69 83 987.7
20200410031945 38 240 1.0 4.0 0.00 0.47 0.69 85 987.7
20200410030915 37 250 1.0 2.0 0.00 0.47 0.69 90 987.7
20200410025845 38 0.0 0.0 0.00 0.47 0.69 90 987.7
20200410024815 38 270 1.0 2.0 0.00 0.47 0.69 91 987.7
20200410023746 38 283 0.0 1.0 0.00 0.47 0.69 91 987.8
20200410022716 38 0.0 0.0 0.00 0.47 0.69 92 987.8
20200410021645 39 0.0 0.0 0.00 0.47 0.69 92 987.8
20200410020615 39 0.0 0.0 0.00 0.47 0.69 91 987.7
20200410015545 40 0.0 0.0 0.00 0.47 0.69 90 987.7
20200410014515 40 194 0.0 1.0 0.00 0.47 0.69 89 987.6
20200410013445 40 259 2.0 4.0 0.00 0.47 0.69 88 987.5
20200410012415 40 250 1.0 3.0 0.00 0.47 0.69 86 987.5
20200410011345 41 232 2.0 4.0 0.00 0.47 0.69 86 987.4
20200410010315 41 207 2.0 6.0 0.00 0.47 0.69 84 987.3
20200410005250 40 246 4.0 8.0 0.00 0.47 0.69 85 987.1
20200410004215 41 233 1.0 2.0 0.00 0.47 0.69 89 986.8
20200410003145 41 257 2.0 6.0 0.00 0.47 0.69 88 986.7
20200410002115 41 255 4.0 7.0 0.01 0.47 0.69 88 986.6
20200410001045 41 251 3.0 8.0 0.03 0.47 0.69 89 986.2
20200410000015 41 249 2.0 6.0 0.04 0.47 0.69 92 986.0
20200409234945 41 236 3.0 6.0 0.04 0.47 0.69 93 985.6
20200409233915 42 250 4.0 6.0 0.04 0.47 0.69 92 985.2
20200409232845 42 291 2.0 4.0 0.04 0.47 0.69 91 984.9
20200409231815 43 243 3.0 10.0 0.03 0.45 0.67 92 984.6
20200409230745 43 288 4.0 8.0 0.02 0.44 0.66 93 984.3
20200409225718 44 272 3.0 9.0 0.01 0.43 0.65 96 983.9
20200409224645 44 0.0 0.0 0.02 0.43 0.64 96 983.8
20200409223615 44 0.0 0.0 0.04 0.43 0.64 96 983.7
20200409222549 44 0.0 0.0 0.05 0.43 0.64 96 983.9
20200409221517 44 0.0 0.0 0.04 0.42 0.63 96 984.2
20200409220447 44 0.0 0.0 0.05 0.42 0.63 96 983.9
20200409215417 44 0.0 0.0 0.05 0.42 0.63 96 983.9
20200409214347 44 0.0 0.0 0.04 0.40 0.61 96 984.1
20200409213317 44 0.0 0.0 0.04 0.39 0.60 96 984.5
20200409212247 44 0.0 0.0 0.05 0.38 0.59 96 984.1
20200409211217 44 0.0 0.0 0.04 0.37 0.58 96 983.7
20200409210147 44 0.0 0.0 0.06 0.37 0.58 96 983.7
20200409205117 45 0.0 0.0 0.07 0.37 0.58 96 983.7
20200409204047 45 0.0 0.0 0.09 0.36 0.57 96 984.6
20200409203017 45 277 0.0 1.0 0.08 0.34 0.55 96 984.3
20200409201947 45 0.0 0.0 0.10 0.33 0.53 96 984.2
20200409200917 45 0.0 0.0 0.11 0.32 0.50 96 984.6
20200409195847 45 0.0 0.0 0.11 0.31 0.48 96 984.9
20200409194816 45 265 0.0 1.0 0.10 0.29 0.45 96 985.2
20200409193751 45 0.0 0.0 0.09 0.26 0.42 96 985.7
20200409192716 45 0.0 0.0 0.10 0.26 0.39 96 985.1
20200409191646 45 0.0 0.0 0.07 0.23 0.34 95 984.9
20200409190617 44 0.0 0.0 0.05 0.20 0.31 95 984.2
20200409185547 44 0.0 0.0 0.06 0.20 0.30 95 984.8
20200409184516 45 81 1.0 3.0 0.05 0.19 0.29 94 985.3
20200409183446 45 252 0.0 2.0 0.04 0.17 0.27 94 986.0
20200409182416 45 336 0.0 5.0 0.05 0.16 0.26 94 986.3
20200409181346 45 86 1.0 4.0 0.05 0.16 0.26 94 987.2
20200409180316 45 143 1.0 5.0 0.04 0.15 0.25 93 987.4
20200409175246 45 234 1.0 6.0 0.04 0.14 0.24 92 987.6
20200409174216 46 119 2.0 4.0 0.04 0.14 0.21 93 988.3
20200409173147 46 104 1.0 5.0 0.05 0.13 0.19 94 988.6
20200409172116 46 138 1.0 2.0 0.04 0.11 0.16 94 988.9
20200409171046 47 338 3.0 6.0 0.05 0.11 0.16 94 988.7
20200409170016 47 99 1.0 4.0 0.06 0.11 0.16 95 989.2
20200409164946 47 105 1.0 4.0 0.06 0.10 0.15 95 989.5
20200409163916 47 109 0.0 5.0 0.06 0.10 0.15 95 990.0
20200409162846 46 304 3.0 7.0 0.04 0.08 0.12 95 990.8
20200409161816 46 183 1.0 4.0 0.04 0.07 0.10 95 990.7
20200409160746 46 96 0.0 2.0 0.04 0.06 0.09 95 991.0
20200409155716 46 164 0.0 1.0 0.04 0.05 0.08 95 991.5
20200409154646 46 275 0.0 2.0 0.04 0.04 0.06 95 992.0
20200409153616 46 0.0 3.0 0.04 0.04 0.05 94 992.3
20200409152546 46 137 1.0 2.0 0.04 0.04 0.04 93 993.0
20200409151516 46 134 0.0 2.0 0.03 0.03 0.03 93 993.6
20200409150446 46 118 1.0 2.0 0.02 0.02 0.02 92 994.3
20200409145416 47 166 1.0 2.0 0.01 0.01 0.01 91 994.4
20200409144346 47 192 1.0 2.0 0.00 0.00 0.00 90 995.1
20200409143316 47 64 0.0 1.0 0.00 0.00 0.00 90 994.7
20200409142246 47 80 0.0 2.0 0.00 0.00 0.00 90 994.9
20200409141216 47 13 1.0 3.0 0.00 0.00 0.00 89 995.5
20200409140146 47 41 1.0 2.0 0.00 0.00 0.00 89 995.6
20200409135116 46 301 0.0 1.0 0.00 0.00 0.00 89 996.0
20200409134046 46 292 1.0 3.0 0.00 0.00 0.00 90 996.3
20200409133016 46 271 1.0 2.0 0.00 0.00 0.00 91 996.7
20200409131946 45 69 1.0 1.0 0.00 0.00 0.00 92 996.8
20200409130916 45 244 0.0 2.0 0.00 0.00 0.00 93 996.8
20200409125845 44 156 1.0 4.0 0.00 0.00 0.00 93 997.5
20200409124816 44 269 0.0 1.0 0.00 0.00 0.00 93 997.7
20200409123746 44 256 1.0 2.0 0.00 0.00 0.00 94 997.8
20200409122716 43 161 0.0 2.0 0.00 0.00 0.00 94 998.0
20200409121646 43 251 0.0 1.0 0.00 0.00 0.00 95 998.3
20200409120615 42 0.0 1.0 0.00 0.01 0.00 95 998.8
20200409115545 42 0.0 0.0 0.00 0.01 0.00 96 999.2
20200409114515 41 243 1.0 2.0 0.00 0.02 0.00 97 999.4
20200409113445 41 248 1.0 2.0 0.00 0.03 0.00 97 999.8
20200409112415 40 0.0 0.0 0.00 0.03 0.00 97 1000.1
20200409111345 40 254 0.0 1.0 0.00 0.04 0.00 97 1000.1
20200409110315 39 254 0.0 2.0 0.00 0.04 0.00 97 1000.3
20200409105245 38 0.0 0.0 0.00 0.04 0.00 97 1000.4
20200409104216 37 0.0 0.0 0.00 0.04 0.00 97 1000.3